Westside, Nebraska
Current Conditions -  °F | °C
As of 3:35 AM on Sunday 21 Dec 2014 (Local Time) from KHDE Reporting Station
Clear Clear  
Wind Chill: 30°   Ceiling: Unl
Heat Index: 35°   Visibility: 10mi
Dew Point: 31°   Wind: 6mph
Humidity: 84%   Direction: 220°SW
Pressure: 29.86"   Gusts: NA
Location:  40.5759°N, 99.537°W
Report Text: KHDE 210935Z AUTO 22005KT 10SM CLR 02/M01 A2986 RMK AO2 T00171008
Loading
Personal Weather Stations






























Interactive Weather Map New forecast layout! Learn more

10-Day Weather Forecast

Advertisements
Track Severe Weather on mobile